createdAt,value
2018-04-22T00:00:59.207Z,11.00
2018-04-22T00:03:26.735Z,8.27
2018-04-22T00:05:54.257Z,9.40
2018-04-22T00:08:21.799Z,9.40
2018-04-22T00:10:49.293Z,19.60
2018-04-22T00:13:16.771Z,20.67
2018-04-22T00:15:44.276Z,10.73
2018-04-22T00:18:11.772Z,9.80
2018-04-22T00:20:39.269Z,9.50
2018-04-22T00:23:06.748Z,9.87
2018-04-22T00:25:34.210Z,9.00
2018-04-22T00:28:01.685Z,9.30
2018-04-22T00:30:29.252Z,8.63
2018-04-22T00:32:56.700Z,8.87
2018-04-22T00:35:24.205Z,8.87
2018-04-22T00:37:51.661Z,9.60
2018-04-22T00:40:19.117Z,8.67
2018-04-22T00:42:46.646Z,9.77
2018-04-22T00:45:14.197Z,8.60
2018-04-22T00:47:41.655Z,9.77
2018-04-22T00:50:09.157Z,8.80
2018-04-22T00:52:36.634Z,9.40
2018-04-22T00:55:04.096Z,12.30
2018-04-22T00:57:31.565Z,20.93
2018-04-22T00:59:59.094Z,11.17
2018-04-22T01:02:26.581Z,8.20
2018-04-22T01:04:54.043Z,9.40
2018-04-22T01:07:21.546Z,8.33
2018-04-22T01:09:49.059Z,9.57
2018-04-22T01:12:16.549Z,9.30
2018-04-22T01:14:44.048Z,12.20
2018-04-22T01:17:11.532Z,9.67
2018-04-22T01:19:38.998Z,8.23
2018-04-22T01:22:06.450Z,8.40
2018-04-22T01:24:33.972Z,8.60
2018-04-22T01:27:01.439Z,8.47
2018-04-22T01:29:28.897Z,8.83
2018-04-22T01:31:56.501Z,7.73
2018-04-22T01:34:24.048Z,8.50
2018-04-22T01:36:51.523Z,8.80
2018-04-22T01:39:18.980Z,8.50
2018-04-22T01:41:46.480Z,9.00
2018-04-22T01:44:13.963Z,7.43
2018-04-22T01:46:41.435Z,7.90
2018-04-22T01:49:08.916Z,10.30
2018-04-22T01:51:36.430Z,10.50
2018-04-22T01:54:03.932Z,9.83
2018-04-22T01:56:31.404Z,9.27
2018-04-22T01:58:58.892Z,9.70
2018-04-22T02:01:26.505Z,13.17
2018-04-22T02:03:53.959Z,14.33
2018-04-22T02:06:21.416Z,9.00
2018-04-22T02:08:48.924Z,11.20
2018-04-22T02:11:16.395Z,9.53
2018-04-22T02:13:43.855Z,10.60
2018-04-22T02:16:11.345Z,10.13
2018-04-22T02:18:38.902Z,10.00
2018-04-22T02:21:06.360Z,9.10
2018-04-22T02:23:33.881Z,17.83
2018-04-22T02:26:01.380Z,12.37
2018-04-22T02:28:28.890Z,10.47
2018-04-22T02:30:56.376Z,10.67
2018-04-22T02:33:23.879Z,13.50
2018-04-22T02:35:51.340Z,8.93
2018-04-22T02:38:18.845Z,10.10
2018-04-22T02:40:46.347Z,9.70
2018-04-22T02:43:13.876Z,9.03
2018-04-22T02:45:41.380Z,9.50
2018-04-22T02:48:08.844Z,8.90
2018-04-22T02:50:36.454Z,9.37
2018-04-22T02:53:03.976Z,8.23
2018-04-22T02:55:31.492Z,9.07
2018-04-22T02:57:59.017Z,7.80
2018-04-22T03:00:26.505Z,8.50
2018-04-22T03:02:53.967Z,9.00
2018-04-22T03:05:21.485Z,8.03
2018-04-22T03:07:48.976Z,9.00
2018-04-22T03:10:16.428Z,8.13
2018-04-22T03:12:43.942Z,8.50
2018-04-22T03:15:11.449Z,8.80
2018-04-22T03:17:38.906Z,10.80
2018-04-22T03:20:06.384Z,9.33
2018-04-22T03:22:33.967Z,8.97
2018-04-22T03:25:01.454Z,8.80
2018-04-22T03:27:28.973Z,8.73
2018-04-22T03:29:56.568Z,9.50
2018-04-22T03:32:24.075Z,10.23
2018-04-22T03:34:51.556Z,9.60
2018-04-22T03:37:19.052Z,9.60
2018-04-22T03:39:46.587Z,10.27
2018-04-22T03:42:14.095Z,9.47
2018-04-22T03:44:41.584Z,9.13
2018-04-22T03:47:09.079Z,9.57
2018-04-22T03:49:36.605Z,8.47
2018-04-22T03:52:04.090Z,13.50
2018-04-22T03:54:31.596Z,9.73
2018-04-22T03:56:59.082Z,10.27
2018-04-22T03:59:26.558Z,10.57
2018-04-22T04:01:54.084Z,10.20
2018-04-22T04:04:21.539Z,8.43
2018-04-22T04:06:49.016Z,8.50
2018-04-22T04:09:16.536Z,9.23
2018-04-22T04:11:44.032Z,9.00
2018-04-22T04:14:11.527Z,8.80
2018-04-22T04:16:39.189Z,9.13
2018-04-22T04:19:18.492Z,9.60
2018-04-22T04:21:57.787Z,8.83
2018-04-22T04:27:45.817Z,8.90
2018-04-22T04:30:13.371Z,9.07
2018-04-22T04:32:40.930Z,11.40
2018-04-22T04:35:08.436Z,14.83
2018-04-22T04:37:35.920Z,10.00
2018-04-22T04:40:03.406Z,9.60
2018-04-22T04:42:30.888Z,9.50
2018-04-22T04:44:58.373Z,8.70
2018-04-22T04:47:25.836Z,8.70
2018-04-22T04:49:53.348Z,15.70
2018-04-22T04:52:20.814Z,10.90
2018-04-22T04:54:48.286Z,8.70
2018-04-22T04:57:15.776Z,8.77
2018-04-22T04:59:43.228Z,7.40
2018-04-22T05:02:10.700Z,8.20
2018-04-22T05:04:38.190Z,8.60
2018-04-22T05:07:05.723Z,14.87
2018-04-22T05:09:33.298Z,9.60
2018-04-22T05:12:00.817Z,8.60
2018-04-22T05:14:28.309Z,9.37
2018-04-22T05:16:55.810Z,10.17
2018-04-22T05:19:23.265Z,8.90
2018-04-22T05:21:50.735Z,8.00
2018-04-22T05:24:18.310Z,17.70
2018-04-22T05:26:45.838Z,11.83
2018-04-22T05:29:13.312Z,8.60
2018-04-22T05:31:40.879Z,7.53
2018-04-22T05:34:08.358Z,8.70
2018-04-22T05:36:35.857Z,7.80
2018-04-22T05:39:03.349Z,7.17
2018-04-22T05:41:31.060Z,11.77
2018-04-22T05:43:58.592Z,8.17
2018-04-22T05:46:26.184Z,7.23
2018-04-22T05:48:53.740Z,14.33
2018-04-22T05:51:21.267Z,15.03
2018-04-22T05:53:48.773Z,34.80
2018-04-22T05:56:16.256Z,13.57
2018-04-22T05:58:43.764Z,8.60
2018-04-22T06:01:11.329Z,6.90
2018-04-22T06:03:38.836Z,7.07
2018-04-22T06:06:06.383Z,7.97
2018-04-22T06:08:33.930Z,8.70
2018-04-22T06:11:01.356Z,14.20
2018-04-22T06:13:28.841Z,10.90
2018-04-22T06:15:56.328Z,7.40
2018-04-22T06:18:23.837Z,7.63
2018-04-22T06:20:51.404Z,7.10
2018-04-22T06:23:18.937Z,7.40
2018-04-22T06:25:46.421Z,7.10
2018-04-22T06:28:14.034Z,6.17
2018-04-22T06:30:41.506Z,5.83
2018-04-22T06:33:08.974Z,5.77
2018-04-22T06:35:36.477Z,5.37
2018-04-22T06:38:03.986Z,6.50
2018-04-22T06:40:31.499Z,6.60
2018-04-22T06:42:58.972Z,5.50
2018-04-22T06:45:26.456Z,5.80
2018-04-22T06:47:53.947Z,5.70
2018-04-22T06:50:21.412Z,5.20
2018-04-22T06:52:48.873Z,5.40
2018-04-22T06:55:16.318Z,5.00
2018-04-22T06:57:43.853Z,5.20
2018-04-22T07:00:11.299Z,6.50
2018-04-22T07:02:38.774Z,5.77
2018-04-22T07:05:06.239Z,5.73
2018-04-22T07:07:33.722Z,6.13
2018-04-22T07:10:01.221Z,5.80
2018-04-22T07:12:28.721Z,6.57
2018-04-22T07:14:56.263Z,5.73
2018-04-22T07:17:23.751Z,5.33
2018-04-22T07:19:51.283Z,5.70
2018-04-22T07:22:18.800Z,5.90
2018-04-22T07:24:46.297Z,5.20
2018-04-22T07:27:13.784Z,7.33
2018-04-22T07:29:41.292Z,5.63
2018-04-22T07:32:08.808Z,4.63
2018-04-22T07:34:36.361Z,4.90
2018-04-22T07:37:03.803Z,4.43
2018-04-22T07:39:31.279Z,4.20
2018-04-22T07:41:58.754Z,5.33
2018-04-22T07:44:26.251Z,4.70
2018-04-22T07:46:53.815Z,4.93
2018-04-22T07:49:21.368Z,5.20
2018-04-22T07:51:48.840Z,4.87
2018-04-22T07:54:16.292Z,5.00
2018-04-22T07:56:43.793Z,5.13
2018-04-22T07:59:11.316Z,7.30
2018-04-22T08:01:38.828Z,5.33
2018-04-22T08:04:06.301Z,5.53
2018-04-22T08:06:33.814Z,5.47
2018-04-22T08:09:01.280Z,6.10
2018-04-22T08:11:28.768Z,5.97
2018-04-22T08:13:56.340Z,5.97
2018-04-22T08:16:23.828Z,6.23
2018-04-22T08:18:51.283Z,5.70
2018-04-22T08:21:18.808Z,7.13
2018-04-22T08:23:46.289Z,9.00
2018-04-22T08:26:13.818Z,6.60
2018-04-22T08:28:41.301Z,6.23
2018-04-22T08:31:08.760Z,6.60
2018-04-22T08:33:36.220Z,7.50
2018-04-22T08:36:03.675Z,8.60
2018-04-22T08:38:31.144Z,7.90
2018-04-22T08:40:58.727Z,7.97
2018-04-22T08:43:26.208Z,8.03
2018-04-22T08:45:53.728Z,6.17
2018-04-22T08:48:21.183Z,8.30
2018-04-22T08:50:48.669Z,6.93
2018-04-22T08:53:16.218Z,6.90
2018-04-22T08:55:43.714Z,7.67
2018-04-22T08:58:11.192Z,10.33
2018-04-22T09:00:38.660Z,7.77
2018-04-22T09:03:06.151Z,7.57
2018-04-22T09:05:33.684Z,8.27
2018-04-22T09:08:01.257Z,7.50
2018-04-22T09:10:28.744Z,9.23
2018-04-22T09:12:56.253Z,8.97
2018-04-22T09:15:23.740Z,7.70
2018-04-22T09:17:51.215Z,7.83
2018-04-22T09:20:18.701Z,7.80
2018-04-22T09:22:46.187Z,7.93
2018-04-22T09:25:13.639Z,7.93
2018-04-22T09:27:41.166Z,13.23
2018-04-22T09:30:08.630Z,8.70
2018-04-22T09:32:36.140Z,9.23
2018-04-22T09:35:03.704Z,8.80
2018-04-22T09:37:31.161Z,9.80
2018-04-22T09:39:58.694Z,8.47
2018-04-22T09:42:26.221Z,6.97
2018-04-22T09:44:53.736Z,8.00
2018-04-22T09:47:21.227Z,8.20
2018-04-22T09:49:48.702Z,8.70
2018-04-22T09:52:16.608Z,8.33
2018-04-22T09:54:44.073Z,8.60
2018-04-22T09:57:11.542Z,9.20
2018-04-22T09:59:39.033Z,7.67
2018-04-22T10:02:12.127Z,9.80
2018-04-22T10:04:39.653Z,7.37
2018-04-22T10:07:07.202Z,8.60
2018-04-22T10:09:34.703Z,8.57
2018-04-22T10:12:02.169Z,8.40
2018-04-22T10:14:29.616Z,10.30
2018-04-22T10:16:57.111Z,9.70
2018-04-22T10:19:24.591Z,9.90
2018-04-22T10:21:52.085Z,8.83
2018-04-22T10:24:19.655Z,8.50
2018-04-22T10:26:47.112Z,9.63
2018-04-22T10:29:14.601Z,9.47
2018-04-22T10:31:42.088Z,15.43
2018-04-22T10:34:09.563Z,10.53
2018-04-22T10:36:37.066Z,11.87
2018-04-22T10:39:04.548Z,8.33
2018-04-22T10:41:32.005Z,8.40
2018-04-22T10:43:59.483Z,8.03
2018-04-22T10:46:26.972Z,7.53
2018-04-22T10:48:54.536Z,8.67
2018-04-22T10:51:21.999Z,9.00
2018-04-22T10:53:49.463Z,7.73
2018-04-22T10:56:16.948Z,8.10
2018-04-22T10:58:44.467Z,7.87
2018-04-22T11:01:11.971Z,8.30
2018-04-22T11:03:39.424Z,9.27
2018-04-22T11:06:06.957Z,7.30
2018-04-22T11:08:34.480Z,7.53
2018-04-22T11:11:02.020Z,7.40
2018-04-22T11:13:29.477Z,6.83
2018-04-22T11:15:57.032Z,6.80
2018-04-22T11:18:24.495Z,6.50
2018-04-22T11:20:51.950Z,6.03
2018-04-22T11:23:19.415Z,6.07
2018-04-22T11:25:46.870Z,5.10
2018-04-22T11:28:14.368Z,6.03
2018-04-22T11:30:41.883Z,5.97
2018-04-22T11:33:09.441Z,5.50
2018-04-22T11:35:36.891Z,6.40
2018-04-22T11:38:04.396Z,5.33
2018-04-22T11:40:31.922Z,4.93
2018-04-22T11:42:59.496Z,4.90
2018-04-22T11:45:26.958Z,5.53
2018-04-22T11:47:54.455Z,6.47
2018-04-22T11:50:21.970Z,5.67
2018-04-22T11:52:49.458Z,5.53
2018-04-22T11:55:16.895Z,5.20
2018-04-22T11:57:44.529Z,5.27
2018-04-22T12:00:12.001Z,4.60
2018-04-22T12:02:39.490Z,5.70
2018-04-22T12:05:07.032Z,5.20
2018-04-22T12:07:34.560Z,5.50
2018-04-22T12:10:02.034Z,4.90
2018-04-22T12:12:29.528Z,4.53
2018-04-22T12:14:56.977Z,5.10
2018-04-22T12:17:24.453Z,5.43
2018-04-22T12:19:52.057Z,5.40
2018-04-22T12:22:19.540Z,4.20
2018-04-22T12:24:47.265Z,4.27
2018-04-22T12:27:14.776Z,5.70
2018-04-22T12:29:42.217Z,4.70
2018-04-22T12:32:09.745Z,4.27
2018-04-22T12:34:37.213Z,4.40
2018-04-22T12:37:04.704Z,5.70
2018-04-22T12:39:32.197Z,4.93
2018-04-22T12:41:59.768Z,6.17
2018-04-22T12:44:27.254Z,6.87
2018-04-22T12:46:54.756Z,4.83
2018-04-22T12:49:22.256Z,4.17
2018-04-22T12:51:49.736Z,4.30
2018-04-22T12:54:17.183Z,4.97
2018-04-22T12:56:44.685Z,4.07
2018-04-22T12:59:12.187Z,5.33
2018-04-22T13:01:39.627Z,6.30
2018-04-22T13:04:07.140Z,6.43
2018-04-22T13:06:34.616Z,5.10
2018-04-22T13:09:02.064Z,3.87
2018-04-22T13:11:29.564Z,3.90
2018-04-22T13:13:57.024Z,4.10
2018-04-22T13:16:24.561Z,4.17
2018-04-22T13:18:52.046Z,4.40
2018-04-22T13:21:19.554Z,4.90
2018-04-22T13:23:47.019Z,5.10
2018-04-22T13:26:14.575Z,6.90
2018-04-22T13:28:42.114Z,3.80
2018-04-22T13:31:09.600Z,4.20
2018-04-22T13:33:37.197Z,4.10
2018-04-22T13:36:04.755Z,3.40
2018-04-22T13:38:32.315Z,4.10
2018-04-22T13:40:59.840Z,3.90
2018-04-22T13:43:27.345Z,5.13
2018-04-22T13:45:54.835Z,5.60
2018-04-22T13:48:22.325Z,4.70
2018-04-22T13:50:49.832Z,4.13
2018-04-22T13:53:17.353Z,5.77
2018-04-22T13:55:44.921Z,3.90
2018-04-22T13:58:12.409Z,4.60
2018-04-22T14:00:39.892Z,3.63
2018-04-22T14:03:07.384Z,3.87
2018-04-22T14:05:34.840Z,4.10
2018-04-22T14:08:02.313Z,3.50
2018-04-22T14:10:29.802Z,4.27
2018-04-22T14:12:57.256Z,3.90
2018-04-22T14:15:24.784Z,4.00
2018-04-22T14:17:52.325Z,4.43
2018-04-22T14:20:19.881Z,4.20
2018-04-22T14:22:47.336Z,4.20
2018-04-22T14:25:14.885Z,4.17
2018-04-22T14:27:42.378Z,5.13
2018-04-22T14:30:09.892Z,4.23
2018-04-22T14:32:37.472Z,4.50
2018-04-22T14:35:04.928Z,4.20
2018-04-22T14:37:32.419Z,4.67
2018-04-22T14:39:59.899Z,4.13
2018-04-22T14:42:27.409Z,4.00
2018-04-22T14:45:06.638Z,4.23
2018-04-22T14:47:34.143Z,4.80
2018-04-22T14:50:01.621Z,4.83
2018-04-22T14:52:29.098Z,3.70
2018-04-22T14:54:56.697Z,3.70
2018-04-22T14:57:24.191Z,4.03
2018-04-22T14:59:51.706Z,3.67
2018-04-22T15:02:19.198Z,3.60
2018-04-22T15:04:46.654Z,4.50
2018-04-22T15:07:14.131Z,4.20
2018-04-22T15:09:41.612Z,5.80
2018-04-22T15:12:09.059Z,3.97
2018-04-22T15:14:36.560Z,3.90
2018-04-22T15:17:04.019Z,5.40
2018-04-22T15:19:31.468Z,4.30
2018-04-22T15:21:58.951Z,5.83
2018-04-22T15:24:26.461Z,4.70
2018-04-22T15:26:53.953Z,4.03
2018-04-22T15:29:21.456Z,4.47
2018-04-22T15:31:49.053Z,6.27
2018-04-22T15:34:16.588Z,5.50
2018-04-22T15:36:44.122Z,4.83
2018-04-22T15:39:11.686Z,5.83
2018-04-22T15:41:39.197Z,4.97
2018-04-22T15:44:06.702Z,10.97
2018-04-22T15:46:34.151Z,7.87
2018-04-22T15:49:01.693Z,5.60
2018-04-22T15:51:29.171Z,4.20
2018-04-22T15:53:56.619Z,4.70
2018-04-22T15:56:24.100Z,4.03
2018-04-22T15:58:51.673Z,3.90
2018-04-22T16:01:19.156Z,4.77
2018-04-22T16:03:46.625Z,4.50
2018-04-22T16:06:14.107Z,4.10
2018-04-22T16:08:41.595Z,5.23
2018-04-22T16:11:09.087Z,4.60
2018-04-22T16:13:36.612Z,6.50
2018-04-22T16:16:04.267Z,4.90
2018-04-22T16:18:31.776Z,6.10
2018-04-22T16:20:59.257Z,5.37
2018-04-22T16:23:26.780Z,4.10
2018-04-22T16:25:54.286Z,4.10
2018-04-22T16:28:21.739Z,5.07
2018-04-22T16:30:49.208Z,6.27
2018-04-22T16:33:16.710Z,4.30
2018-04-22T16:35:44.262Z,5.43
2018-04-22T16:38:11.829Z,4.40
2018-04-22T16:40:39.332Z,4.77
2018-04-22T16:43:06.789Z,5.03
2018-04-22T16:45:34.405Z,4.50
2018-04-22T16:48:01.896Z,5.67
2018-04-22T16:50:29.399Z,5.40
2018-04-22T16:52:56.882Z,5.53
2018-04-22T16:55:24.373Z,4.63
2018-04-22T16:57:51.822Z,4.90
2018-04-22T17:00:19.300Z,4.57
2018-04-22T17:02:46.810Z,5.00
2018-04-22T17:05:14.289Z,5.20
2018-04-22T17:07:41.809Z,5.23
2018-04-22T17:10:09.285Z,6.20
2018-04-22T17:12:36.742Z,6.00
2018-04-22T17:15:04.258Z,6.20
2018-04-22T17:17:31.776Z,5.40
2018-04-22T17:19:59.231Z,4.87
2018-04-22T17:22:26.729Z,4.43
2018-04-22T17:24:54.320Z,5.37
2018-04-22T17:27:21.880Z,5.43
2018-04-22T17:29:49.348Z,6.90
2018-04-22T17:32:16.864Z,6.20
2018-04-22T17:34:44.376Z,5.93
2018-04-22T17:37:11.927Z,5.30
2018-04-22T17:39:39.405Z,5.50
2018-04-22T17:42:06.903Z,6.67
2018-04-22T17:44:34.405Z,5.27
2018-04-22T17:47:01.907Z,6.10
2018-04-22T17:49:29.422Z,8.23
2018-04-22T17:51:56.898Z,4.57
2018-04-22T17:54:24.381Z,5.37
2018-04-22T17:56:51.826Z,6.40
2018-04-22T17:59:19.280Z,6.07
2018-04-22T18:01:46.771Z,6.00
2018-04-22T18:04:14.282Z,6.33
2018-04-22T18:06:41.774Z,8.13
2018-04-22T18:09:09.232Z,6.83
2018-04-22T18:11:36.724Z,6.30
2018-04-22T18:14:04.329Z,6.10
2018-04-22T18:16:31.854Z,8.30
2018-04-22T18:18:59.377Z,6.30
2018-04-22T18:21:26.912Z,7.50
2018-04-22T18:23:54.430Z,7.00
2018-04-22T18:26:21.897Z,7.63
2018-04-22T18:28:49.394Z,8.07
2018-04-22T18:31:16.881Z,6.93
2018-04-22T18:33:44.419Z,7.83
2018-04-22T18:36:12.006Z,7.40
2018-04-22T18:38:39.475Z,6.80
2018-04-22T18:41:06.936Z,6.17
2018-04-22T18:43:34.495Z,7.23
2018-04-22T18:46:01.982Z,7.83
2018-04-22T18:48:29.466Z,10.93
2018-04-22T18:50:56.992Z,8.10
2018-04-22T18:53:24.472Z,6.30
2018-04-22T18:55:51.954Z,6.73
2018-04-22T18:58:19.456Z,6.37
2018-04-22T19:00:47.000Z,7.50
2018-04-22T19:03:14.549Z,6.77
2018-04-22T19:05:42.068Z,6.87
2018-04-22T19:08:09.546Z,11.80
2018-04-22T19:10:37.032Z,9.00
2018-04-22T19:13:04.581Z,10.80
2018-04-22T19:15:32.101Z,6.17
2018-04-22T19:17:59.659Z,6.50
2018-04-22T19:20:27.119Z,7.03
2018-04-22T19:22:54.597Z,7.80
2018-04-22T19:25:22.104Z,6.33
2018-04-22T19:27:49.584Z,6.47
2018-04-22T19:30:17.041Z,7.67
2018-04-22T19:32:44.522Z,6.37
2018-04-22T19:35:11.968Z,7.43
2018-04-22T19:37:39.459Z,7.40
2018-04-22T19:40:06.969Z,8.70
2018-04-22T19:42:34.465Z,7.70
2018-04-22T19:45:01.965Z,9.03
2018-04-22T19:47:29.444Z,10.27
2018-04-22T19:49:56.950Z,11.03
2018-04-22T19:52:24.515Z,8.77
2018-04-22T19:54:51.963Z,9.20
2018-04-22T19:57:19.554Z,7.10
2018-04-22T19:59:47.002Z,7.10
2018-04-22T20:02:14.492Z,9.43
2018-04-22T20:04:42.003Z,7.53
2018-04-22T20:07:09.484Z,7.90
2018-04-22T20:09:36.953Z,8.10
2018-04-22T20:12:04.480Z,7.80
2018-04-22T20:14:31.957Z,7.13
2018-04-22T20:16:59.412Z,7.70
2018-04-22T20:19:26.949Z,7.60
2018-04-22T20:21:54.474Z,7.03
2018-04-22T20:24:21.937Z,8.10
2018-04-22T20:26:49.508Z,7.47
2018-04-22T20:29:17.019Z,7.80
2018-04-22T20:31:44.565Z,8.87
2018-04-22T20:34:12.056Z,7.00
2018-04-22T20:36:39.575Z,8.23
2018-04-22T20:39:07.069Z,8.43
2018-04-22T20:41:34.588Z,7.27
2018-04-22T20:44:02.063Z,6.43
2018-04-22T20:46:29.566Z,9.40
2018-04-22T20:48:57.069Z,8.83
2018-04-22T20:51:24.588Z,7.13
2018-04-22T20:53:52.155Z,8.60
2018-04-22T20:56:19.720Z,7.93
2018-04-22T20:58:47.237Z,6.87
2018-04-22T21:01:14.696Z,7.13
2018-04-22T21:03:42.161Z,7.50
2018-04-22T21:06:09.748Z,8.63
2018-04-22T21:08:37.244Z,10.30
2018-04-22T21:11:04.734Z,11.70
2018-04-22T21:13:32.213Z,9.17
2018-04-22T21:15:59.671Z,13.40
2018-04-22T21:18:27.133Z,10.87
2018-04-22T21:20:54.618Z,8.67
2018-04-22T21:23:22.083Z,13.97
2018-04-22T21:25:49.566Z,7.20
2018-04-22T21:28:17.071Z,10.10
2018-04-22T21:30:44.582Z,10.67
2018-04-22T21:33:12.032Z,8.80
2018-04-22T21:35:39.512Z,7.70
2018-04-22T21:38:07.059Z,13.67
2018-04-22T21:40:34.579Z,8.53
2018-04-22T21:43:02.108Z,9.40
2018-04-22T21:45:29.593Z,13.20
2018-04-22T21:47:57.126Z,14.20
2018-04-22T21:50:24.612Z,12.53
2018-04-22T21:52:52.091Z,9.90
2018-04-22T21:55:19.620Z,25.80
2018-04-22T21:57:47.187Z,16.60
2018-04-22T22:00:14.679Z,10.27
2018-04-22T22:02:42.189Z,12.83
2018-04-22T22:05:09.761Z,17.00
2018-04-22T22:07:37.319Z,14.07
2018-04-22T22:10:04.794Z,7.80
2018-04-22T22:12:32.301Z,14.57
2018-04-22T22:14:59.810Z,8.13
2018-04-22T22:17:27.287Z,13.77
2018-04-22T22:19:54.810Z,14.30
2018-04-22T22:22:22.275Z,15.53
2018-04-22T22:24:49.800Z,7.37
2018-04-22T22:27:17.371Z,10.40
2018-04-22T22:29:44.916Z,12.83
2018-04-22T22:32:12.442Z,7.23
2018-04-22T22:34:40.003Z,6.80
2018-04-22T22:37:07.476Z,14.40
2018-04-22T22:39:34.955Z,11.40
2018-04-22T22:42:02.459Z,9.00
2018-04-22T22:44:29.984Z,17.77
2018-04-22T22:46:57.548Z,8.40
2018-04-22T22:49:25.068Z,14.77
2018-04-22T22:51:52.608Z,9.87
2018-04-22T22:54:20.086Z,6.73
2018-04-22T22:56:47.663Z,8.40
2018-04-22T22:59:15.123Z,9.10
2018-04-22T23:01:42.576Z,11.13
2018-04-22T23:04:10.044Z,6.30
2018-04-22T23:06:37.537Z,5.90
2018-04-22T23:09:05.790Z,7.00
2018-04-22T23:11:33.266Z,5.67
2018-04-22T23:14:00.730Z,6.63
2018-04-22T23:16:28.183Z,6.07
2018-04-22T23:18:55.666Z,8.70
2018-04-22T23:21:23.127Z,8.17
2018-04-22T23:23:50.618Z,7.23
2018-04-22T23:26:18.129Z,6.60
2018-04-22T23:28:45.613Z,6.10
2018-04-22T23:31:13.312Z,6.73
2018-04-22T23:33:40.803Z,6.73
2018-04-22T23:36:08.278Z,8.40
2018-04-22T23:38:35.760Z,8.40
2018-04-22T23:41:03.212Z,8.77
2018-04-22T23:43:30.724Z,9.10
2018-04-22T23:45:58.260Z,8.73
2018-04-22T23:48:25.750Z,7.77
2018-04-22T23:50:53.207Z,8.87
2018-04-22T23:53:20.686Z,7.07
2018-04-22T23:55:48.212Z,7.87
2018-04-22T23:58:15.667Z,8.17
